sensor_id;sensor_type;location;lat;lon;timestamp;temperature;humidity
612;DHT22;293;53.888;11.464;2023-08-06T00:00:38;17.30;99.90
612;DHT22;293;53.888;11.464;2023-08-06T00:03:05;17.30;99.90
612;DHT22;293;53.888;11.464;2023-08-06T00:05:32;17.30;99.90
612;DHT22;293;53.888;11.464;2023-08-06T00:08:00;17.20;99.90
612;DHT22;293;53.888;11.464;2023-08-06T00:10:27;17.20;99.90
612;DHT22;293;53.888;11.464;2023-08-06T00:12:54;17.20;99.90
612;DHT22;293;53.888;11.464;2023-08-06T00:15:22;17.20;99.90
612;DHT22;293;53.888;11.464;2023-08-06T00:17:49;17.20;99.90
612;DHT22;293;53.888;11.464;2023-08-06T00:20:15;17.20;99.90
612;DHT22;293;53.888;11.464;2023-08-06T00:22:42;17.20;99.90
612;DHT22;293;53.888;11.464;2023-08-06T00:25:11;17.20;99.90
612;DHT22;293;53.888;11.464;2023-08-06T00:27:37;17.20;99.90
612;DHT22;293;53.888;11.464;2023-08-06T00:30:06;17.10;99.90
612;DHT22;293;53.888;11.464;2023-08-06T00:32:32;17.10;99.90
612;DHT22;293;53.888;11.464;2023-08-06T00:34:59;17.10;99.90
612;DHT22;293;53.888;11.464;2023-08-06T00:37:26;17.10;99.90
612;DHT22;293;53.888;11.464;2023-08-06T00:39:53;17.20;99.90
612;DHT22;293;53.888;11.464;2023-08-06T00:42:21;17.20;99.90
612;DHT22;293;53.888;11.464;2023-08-06T00:44:48;17.20;99.90
612;DHT22;293;53.888;11.464;2023-08-06T00:47:15;17.20;99.90
612;DHT22;293;53.888;11.464;2023-08-06T00:49:42;17.20;99.90
612;DHT22;293;53.888;11.464;2023-08-06T00:52:10;17.20;99.90
612;DHT22;293;53.888;11.464;2023-08-06T00:54:38;17.20;99.90
612;DHT22;293;53.888;11.464;2023-08-06T00:57:07;17.20;99.90
612;DHT22;293;53.888;11.464;2023-08-06T00:59:35;17.20;99.90
612;DHT22;293;53.888;11.464;2023-08-06T01:02:02;17.20;99.90
612;DHT22;293;53.888;11.464;2023-08-06T01:04:29;17.20;99.90
612;DHT22;293;53.888;11.464;2023-08-06T01:07:04;17.30;99.90
612;DHT22;293;53.888;11.464;2023-08-06T01:09:39;17.20;99.90
612;DHT22;293;53.888;11.464;2023-08-06T01:12:29;17.20;99.90
612;DHT22;293;53.888;11.464;2023-08-06T01:15:07;17.20;99.90
612;DHT22;293;53.888;11.464;2023-08-06T01:17:36;17.20;99.90
612;DHT22;293;53.888;11.464;2023-08-06T01:20:03;17.20;99.90
612;DHT22;293;53.888;11.464;2023-08-06T01:22:31;17.20;99.90
612;DHT22;293;53.888;11.464;2023-08-06T01:24:58;17.10;99.90
612;DHT22;293;53.888;11.464;2023-08-06T01:27:30;17.10;99.90
612;DHT22;293;53.888;11.464;2023-08-06T01:30:03;17.20;99.90
612;DHT22;293;53.888;11.464;2023-08-06T01:32:34;17.10;99.90
612;DHT22;293;53.888;11.464;2023-08-06T01:35:03;17.10;99.90
612;DHT22;293;53.888;11.464;2023-08-06T01:37:32;17.20;99.90
612;DHT22;293;53.888;11.464;2023-08-06T01:40:00;17.10;99.90
612;DHT22;293;53.888;11.464;2023-08-06T01:42:26;17.20;99.90
612;DHT22;293;53.888;11.464;2023-08-06T01:44:53;17.20;99.90
612;DHT22;293;53.888;11.464;2023-08-06T01:47:20;17.20;99.90
612;DHT22;293;53.888;11.464;2023-08-06T01:49:47;17.20;99.90
612;DHT22;293;53.888;11.464;2023-08-06T01:52:14;17.10;99.90
612;DHT22;293;53.888;11.464;2023-08-06T01:54:42;17.10;99.90
612;DHT22;293;53.888;11.464;2023-08-06T01:57:09;17.10;99.90
612;DHT22;293;53.888;11.464;2023-08-06T01:59:36;17.10;99.90
612;DHT22;293;53.888;11.464;2023-08-06T02:02:03;17.10;99.90
612;DHT22;293;53.888;11.464;2023-08-06T02:04:30;17.10;99.90
612;DHT22;293;53.888;11.464;2023-08-06T02:06:57;17.00;99.90
612;DHT22;293;53.888;11.464;2023-08-06T02:09:24;17.00;99.90
612;DHT22;293;53.888;11.464;2023-08-06T02:11:52;17.00;99.90
612;DHT22;293;53.888;11.464;2023-08-06T02:14:19;17.00;99.90
612;DHT22;293;53.888;11.464;2023-08-06T02:16:46;17.00;99.90
612;DHT22;293;53.888;11.464;2023-08-06T02:19:12;16.90;99.90
612;DHT22;293;53.888;11.464;2023-08-06T02:21:39;16.90;99.90
612;DHT22;293;53.888;11.464;2023-08-06T02:24:05;16.90;99.90
612;DHT22;293;53.888;11.464;2023-08-06T02:26:32;16.90;99.90
612;DHT22;293;53.888;11.464;2023-08-06T02:29:00;16.90;99.90
612;DHT22;293;53.888;11.464;2023-08-06T02:31:27;16.90;99.90
612;DHT22;293;53.888;11.464;2023-08-06T02:33:54;16.90;99.90
612;DHT22;293;53.888;11.464;2023-08-06T02:36:21;16.90;99.90
612;DHT22;293;53.888;11.464;2023-08-06T02:38:48;16.90;99.90
612;DHT22;293;53.888;11.464;2023-08-06T02:41:15;16.90;99.90
612;DHT22;293;53.888;11.464;2023-08-06T02:43:42;16.90;99.90
612;DHT22;293;53.888;11.464;2023-08-06T02:46:10;16.90;99.90
612;DHT22;293;53.888;11.464;2023-08-06T02:48:36;16.90;99.90
612;DHT22;293;53.888;11.464;2023-08-06T02:51:03;16.90;99.90
612;DHT22;293;53.888;11.464;2023-08-06T02:53:30;16.90;99.90
612;DHT22;293;53.888;11.464;2023-08-06T02:55:57;16.80;99.90
612;DHT22;293;53.888;11.464;2023-08-06T02:58:24;16.90;99.90
612;DHT22;293;53.888;11.464;2023-08-06T03:01:01;16.80;99.90
612;DHT22;293;53.888;11.464;2023-08-06T03:03:30;16.80;99.90
612;DHT22;293;53.888;11.464;2023-08-06T03:05:57;16.80;99.90
612;DHT22;293;53.888;11.464;2023-08-06T03:08:25;16.80;99.90
612;DHT22;293;53.888;11.464;2023-08-06T03:10:52;16.80;99.90
612;DHT22;293;53.888;11.464;2023-08-06T03:13:19;16.80;99.90
612;DHT22;293;53.888;11.464;2023-08-06T03:15:52;16.80;99.90
612;DHT22;293;53.888;11.464;2023-08-06T03:18:19;16.80;99.90
612;DHT22;293;53.888;11.464;2023-08-06T03:20:48;16.80;99.90
612;DHT22;293;53.888;11.464;2023-08-06T03:23:15;16.80;99.90
612;DHT22;293;53.888;11.464;2023-08-06T03:25:42;16.80;99.90
612;DHT22;293;53.888;11.464;2023-08-06T03:28:09;16.70;99.90
612;DHT22;293;53.888;11.464;2023-08-06T03:30:35;16.70;99.90
612;DHT22;293;53.888;11.464;2023-08-06T03:33:02;16.70;99.90
612;DHT22;293;53.888;11.464;2023-08-06T03:35:29;16.70;99.90
612;DHT22;293;53.888;11.464;2023-08-06T03:37:58;16.70;99.90
612;DHT22;293;53.888;11.464;2023-08-06T03:40:24;16.60;99.90
612;DHT22;293;53.888;11.464;2023-08-06T03:42:51;16.60;99.90
612;DHT22;293;53.888;11.464;2023-08-06T03:45:18;16.60;99.90
612;DHT22;293;53.888;11.464;2023-08-06T03:47:45;16.60;99.90
612;DHT22;293;53.888;11.464;2023-08-06T03:50:12;16.60;99.90
612;DHT22;293;53.888;11.464;2023-08-06T03:52:39;16.60;99.90
612;DHT22;293;53.888;11.464;2023-08-06T03:55:07;16.60;99.90
612;DHT22;293;53.888;11.464;2023-08-06T03:57:34;16.50;99.90
612;DHT22;293;53.888;11.464;2023-08-06T04:00:01;16.50;99.90
612;DHT22;293;53.888;11.464;2023-08-06T04:02:28;16.40;99.90
612;DHT22;293;53.888;11.464;2023-08-06T04:04:55;16.40;99.90
612;DHT22;293;53.888;11.464;2023-08-06T04:07:24;16.40;99.90
612;DHT22;293;53.888;11.464;2023-08-06T04:09:53;16.40;99.90
612;DHT22;293;53.888;11.464;2023-08-06T04:12:22;16.40;99.90
612;DHT22;293;53.888;11.464;2023-08-06T04:14:49;16.40;99.90
612;DHT22;293;53.888;11.464;2023-08-06T04:17:17;16.50;99.90
612;DHT22;293;53.888;11.464;2023-08-06T04:19:46;16.50;99.90
612;DHT22;293;53.888;11.464;2023-08-06T04:22:13;16.50;99.90
612;DHT22;293;53.888;11.464;2023-08-06T04:24:40;16.50;99.90
612;DHT22;293;53.888;11.464;2023-08-06T04:27:07;16.50;99.90
612;DHT22;293;53.888;11.464;2023-08-06T04:29:36;16.60;99.90
612;DHT22;293;53.888;11.464;2023-08-06T04:32:05;16.60;99.90
612;DHT22;293;53.888;11.464;2023-08-06T04:34:32;16.60;99.90
612;DHT22;293;53.888;11.464;2023-08-06T04:36:59;16.70;99.90
612;DHT22;293;53.888;11.464;2023-08-06T04:39:26;16.60;99.90
612;DHT22;293;53.888;11.464;2023-08-06T04:41:53;16.60;99.90
612;DHT22;293;53.888;11.464;2023-08-06T04:44:20;16.60;99.90
612;DHT22;293;53.888;11.464;2023-08-06T04:46:49;16.70;99.90
612;DHT22;293;53.888;11.464;2023-08-06T04:49:16;16.70;99.90
612;DHT22;293;53.888;11.464;2023-08-06T04:51:42;16.70;99.90
612;DHT22;293;53.888;11.464;2023-08-06T04:54:09;16.70;99.90
612;DHT22;293;53.888;11.464;2023-08-06T04:56:36;16.70;99.90
612;DHT22;293;53.888;11.464;2023-08-06T04:59:03;16.70;99.90
612;DHT22;293;53.888;11.464;2023-08-06T05:01:30;16.70;99.90
612;DHT22;293;53.888;11.464;2023-08-06T05:03:58;16.70;99.90
612;DHT22;293;53.888;11.464;2023-08-06T05:06:25;16.70;99.90
612;DHT22;293;53.888;11.464;2023-08-06T05:08:52;16.80;99.90
612;DHT22;293;53.888;11.464;2023-08-06T05:11:19;16.90;99.90
612;DHT22;293;53.888;11.464;2023-08-06T05:13:46;16.90;99.90
612;DHT22;293;53.888;11.464;2023-08-06T05:16:12;17.00;99.90
612;DHT22;293;53.888;11.464;2023-08-06T05:18:39;17.00;99.90
612;DHT22;293;53.888;11.464;2023-08-06T05:21:08;17.10;99.90
612;DHT22;293;53.888;11.464;2023-08-06T05:23:35;17.10;99.90
612;DHT22;293;53.888;11.464;2023-08-06T05:26:02;17.20;99.90
612;DHT22;293;53.888;11.464;2023-08-06T05:28:29;17.30;99.90
612;DHT22;293;53.888;11.464;2023-08-06T05:30:56;17.40;99.90
612;DHT22;293;53.888;11.464;2023-08-06T05:33:23;17.40;99.90
612;DHT22;293;53.888;11.464;2023-08-06T05:35:50;17.50;99.90
612;DHT22;293;53.888;11.464;2023-08-06T05:38:18;17.50;99.90
612;DHT22;293;53.888;11.464;2023-08-06T05:40:45;17.60;99.90
612;DHT22;293;53.888;11.464;2023-08-06T05:43:12;17.60;99.90
612;DHT22;293;53.888;11.464;2023-08-06T05:45:39;17.70;99.90
612;DHT22;293;53.888;11.464;2023-08-06T05:48:05;17.80;99.90
612;DHT22;293;53.888;11.464;2023-08-06T05:50:32;17.80;99.90
612;DHT22;293;53.888;11.464;2023-08-06T05:52:59;17.90;99.90
612;DHT22;293;53.888;11.464;2023-08-06T05:55:27;17.90;99.90
612;DHT22;293;53.888;11.464;2023-08-06T05:57:54;18.00;99.90
612;DHT22;293;53.888;11.464;2023-08-06T06:00:21;18.00;99.90
612;DHT22;293;53.888;11.464;2023-08-06T06:02:48;18.10;99.90
612;DHT22;293;53.888;11.464;2023-08-06T06:05:15;18.10;99.90
612;DHT22;293;53.888;11.464;2023-08-06T06:07:42;18.10;99.90
612;DHT22;293;53.888;11.464;2023-08-06T06:10:09;18.20;99.90
612;DHT22;293;53.888;11.464;2023-08-06T06:12:40;18.20;99.90
612;DHT22;293;53.888;11.464;2023-08-06T06:15:07;18.30;99.90
612;DHT22;293;53.888;11.464;2023-08-06T06:17:34;18.30;99.90
612;DHT22;293;53.888;11.464;2023-08-06T06:20:01;18.40;99.90
612;DHT22;293;53.888;11.464;2023-08-06T06:22:29;18.40;99.90
612;DHT22;293;53.888;11.464;2023-08-06T06:24:56;18.40;99.90
612;DHT22;293;53.888;11.464;2023-08-06T06:27:23;18.50;99.90
612;DHT22;293;53.888;11.464;2023-08-06T06:29:51;18.50;99.90
612;DHT22;293;53.888;11.464;2023-08-06T06:32:20;18.50;99.90
612;DHT22;293;53.888;11.464;2023-08-06T06:34:47;18.70;99.90
612;DHT22;293;53.888;11.464;2023-08-06T06:37:14;18.80;99.90
612;DHT22;293;53.888;11.464;2023-08-06T06:39:41;19.00;99.90
612;DHT22;293;53.888;11.464;2023-08-06T06:42:08;19.10;99.90
612;DHT22;293;53.888;11.464;2023-08-06T06:44:34;19.20;99.90
612;DHT22;293;53.888;11.464;2023-08-06T06:47:03;19.30;99.90
612;DHT22;293;53.888;11.464;2023-08-06T06:49:30;19.40;99.90
612;DHT22;293;53.888;11.464;2023-08-06T06:51:57;19.40;99.90
612;DHT22;293;53.888;11.464;2023-08-06T06:54:24;19.70;99.90
612;DHT22;293;53.888;11.464;2023-08-06T06:56:50;19.80;99.90
612;DHT22;293;53.888;11.464;2023-08-06T06:59:17;19.90;99.90
612;DHT22;293;53.888;11.464;2023-08-06T07:01:44;20.00;99.90
612;DHT22;293;53.888;11.464;2023-08-06T07:04:12;20.20;99.90
612;DHT22;293;53.888;11.464;2023-08-06T07:06:45;20.30;99.90
612;DHT22;293;53.888;11.464;2023-08-06T07:09:12;20.40;99.90
612;DHT22;293;53.888;11.464;2023-08-06T07:11:39;20.50;99.90
612;DHT22;293;53.888;11.464;2023-08-06T07:14:09;20.60;99.90
612;DHT22;293;53.888;11.464;2023-08-06T07:16:36;20.70;99.90
612;DHT22;293;53.888;11.464;2023-08-06T07:19:03;20.80;99.90
612;DHT22;293;53.888;11.464;2023-08-06T07:21:32;20.90;99.90
612;DHT22;293;53.888;11.464;2023-08-06T07:23:59;21.00;99.90
612;DHT22;293;53.888;11.464;2023-08-06T07:26:26;21.00;99.90
612;DHT22;293;53.888;11.464;2023-08-06T07:28:53;21.00;99.90
612;DHT22;293;53.888;11.464;2023-08-06T07:31:20;20.90;99.90
612;DHT22;293;53.888;11.464;2023-08-06T07:33:47;20.80;99.90
612;DHT22;293;53.888;11.464;2023-08-06T07:36:14;20.90;99.90
612;DHT22;293;53.888;11.464;2023-08-06T07:38:42;20.90;99.90
612;DHT22;293;53.888;11.464;2023-08-06T07:41:09;20.90;99.90
612;DHT22;293;53.888;11.464;2023-08-06T07:43:36;21.00;99.90
612;DHT22;293;53.888;11.464;2023-08-06T07:46:03;21.10;99.90
612;DHT22;293;53.888;11.464;2023-08-06T07:48:31;21.10;99.90
612;DHT22;293;53.888;11.464;2023-08-06T07:50:58;21.10;99.90
612;DHT22;293;53.888;11.464;2023-08-06T07:53:25;21.20;99.90
612;DHT22;293;53.888;11.464;2023-08-06T07:55:56;21.20;99.90
612;DHT22;293;53.888;11.464;2023-08-06T07:58:24;21.20;99.90
612;DHT22;293;53.888;11.464;2023-08-06T08:00:52;21.10;99.90
612;DHT22;293;53.888;11.464;2023-08-06T08:03:19;21.10;99.90
612;DHT22;293;53.888;11.464;2023-08-06T08:05:46;21.10;99.90
612;DHT22;293;53.888;11.464;2023-08-06T08:08:13;21.20;99.90
612;DHT22;293;53.888;11.464;2023-08-06T08:10:40;21.30;99.90
612;DHT22;293;53.888;11.464;2023-08-06T08:13:08;21.40;99.90
612;DHT22;293;53.888;11.464;2023-08-06T08:15:35;21.40;99.90
612;DHT22;293;53.888;11.464;2023-08-06T08:18:02;21.40;99.90
612;DHT22;293;53.888;11.464;2023-08-06T08:20:29;21.40;99.10
612;DHT22;293;53.888;11.464;2023-08-06T08:22:59;21.40;99.50
612;DHT22;293;53.888;11.464;2023-08-06T08:25:27;21.40;99.40
612;DHT22;293;53.888;11.464;2023-08-06T08:27:54;21.40;99.90
612;DHT22;293;53.888;11.464;2023-08-06T08:30:22;21.40;99.90
612;DHT22;293;53.888;11.464;2023-08-06T08:32:50;21.50;99.50
612;DHT22;293;53.888;11.464;2023-08-06T08:35:17;21.50;99.30
612;DHT22;293;53.888;11.464;2023-08-06T08:37:44;21.60;99.40
612;DHT22;293;53.888;11.464;2023-08-06T08:40:11;21.60;99.10
612;DHT22;293;53.888;11.464;2023-08-06T08:42:38;21.60;98.70
612;DHT22;293;53.888;11.464;2023-08-06T08:45:08;21.60;99.10
612;DHT22;293;53.888;11.464;2023-08-06T08:47:40;21.50;98.70
612;DHT22;293;53.888;11.464;2023-08-06T08:50:09;21.60;99.40
612;DHT22;293;53.888;11.464;2023-08-06T08:52:38;21.60;99.10
612;DHT22;293;53.888;11.464;2023-08-06T08:55:07;21.60;99.90
612;DHT22;293;53.888;11.464;2023-08-06T08:57:34;21.30;99.90
612;DHT22;293;53.888;11.464;2023-08-06T09:00:02;21.20;99.90
612;DHT22;293;53.888;11.464;2023-08-06T09:02:29;21.20;99.90
612;DHT22;293;53.888;11.464;2023-08-06T09:04:59;21.20;99.90
612;DHT22;293;53.888;11.464;2023-08-06T09:07:32;21.20;99.90
612;DHT22;293;53.888;11.464;2023-08-06T09:10:03;21.30;99.90
612;DHT22;293;53.888;11.464;2023-08-06T09:12:31;21.30;99.90
612;DHT22;293;53.888;11.464;2023-08-06T09:14:58;21.30;99.90
612;DHT22;293;53.888;11.464;2023-08-06T09:17:25;21.30;99.90
612;DHT22;293;53.888;11.464;2023-08-06T09:19:54;21.40;99.90
612;DHT22;293;53.888;11.464;2023-08-06T09:22:22;21.60;99.90
612;DHT22;293;53.888;11.464;2023-08-06T09:24:49;21.80;99.90
612;DHT22;293;53.888;11.464;2023-08-06T09:27:16;22.00;99.90
612;DHT22;293;53.888;11.464;2023-08-06T09:29:45;22.20;99.90
612;DHT22;293;53.888;11.464;2023-08-06T09:32:12;22.20;99.50
612;DHT22;293;53.888;11.464;2023-08-06T09:34:41;22.30;99.90
612;DHT22;293;53.888;11.464;2023-08-06T09:37:09;22.30;99.90
612;DHT22;293;53.888;11.464;2023-08-06T09:39:39;22.40;99.40
612;DHT22;293;53.888;11.464;2023-08-06T09:42:06;22.50;99.30
612;DHT22;293;53.888;11.464;2023-08-06T09:44:33;22.60;98.90
612;DHT22;293;53.888;11.464;2023-08-06T09:47:02;22.60;98.60
612;DHT22;293;53.888;11.464;2023-08-06T09:49:41;22.60;98.50
612;DHT22;293;53.888;11.464;2023-08-06T09:52:11;22.60;98.50
612;DHT22;293;53.888;11.464;2023-08-06T09:54:39;22.60;98.60
612;DHT22;293;53.888;11.464;2023-08-06T09:57:06;22.50;98.50
612;DHT22;293;53.888;11.464;2023-08-06T09:59:34;22.60;99.00
612;DHT22;293;53.888;11.464;2023-08-06T10:02:03;22.60;98.90
612;DHT22;293;53.888;11.464;2023-08-06T10:04:33;22.70;98.80
612;DHT22;293;53.888;11.464;2023-08-06T10:07:00;22.90;98.60
612;DHT22;293;53.888;11.464;2023-08-06T10:09:27;23.00;97.80
612;DHT22;293;53.888;11.464;2023-08-06T10:11:57;22.90;97.80
612;DHT22;293;53.888;11.464;2023-08-06T10:14:26;22.90;97.50
612;DHT22;293;53.888;11.464;2023-08-06T10:16:57;22.90;97.60
612;DHT22;293;53.888;11.464;2023-08-06T10:19:26;22.90;97.10
612;DHT22;293;53.888;11.464;2023-08-06T10:22:08;22.80;96.90
612;DHT22;293;53.888;11.464;2023-08-06T10:24:48;22.70;96.90
612;DHT22;293;53.888;11.464;2023-08-06T10:27:21;22.70;97.10
612;DHT22;293;53.888;11.464;2023-08-06T10:29:49;22.60;96.90
612;DHT22;293;53.888;11.464;2023-08-06T10:32:16;22.60;97.30
612;DHT22;293;53.888;11.464;2023-08-06T10:34:54;22.60;97.70
612;DHT22;293;53.888;11.464;2023-08-06T10:37:22;22.70;97.80
612;DHT22;293;53.888;11.464;2023-08-06T10:39:50;22.70;97.40
612;DHT22;293;53.888;11.464;2023-08-06T10:42:29;22.70;98.30
612;DHT22;293;53.888;11.464;2023-08-06T10:45:12;22.80;96.90
612;DHT22;293;53.888;11.464;2023-08-06T10:47:39;22.60;96.50
612;DHT22;293;53.888;11.464;2023-08-06T10:50:07;22.50;96.80
612;DHT22;293;53.888;11.464;2023-08-06T10:52:35;22.40;97.00
612;DHT22;293;53.888;11.464;2023-08-06T10:55:04;22.40;97.30
612;DHT22;293;53.888;11.464;2023-08-06T10:57:32;22.40;97.40
612;DHT22;293;53.888;11.464;2023-08-06T10:59:59;22.40;97.50
612;DHT22;293;53.888;11.464;2023-08-06T11:02:26;22.40;97.00
612;DHT22;293;53.888;11.464;2023-08-06T11:04:53;22.00;96.70
612;DHT22;293;53.888;11.464;2023-08-06T11:07:20;22.10;96.50
612;DHT22;293;53.888;11.464;2023-08-06T11:09:50;22.10;96.30
612;DHT22;293;53.888;11.464;2023-08-06T11:12:18;22.10;96.10
612;DHT22;293;53.888;11.464;2023-08-06T11:14:51;22.10;95.80
612;DHT22;293;53.888;11.464;2023-08-06T11:17:18;22.00;95.40
612;DHT22;293;53.888;11.464;2023-08-06T11:19:45;22.00;95.40
612;DHT22;293;53.888;11.464;2023-08-06T11:22:12;22.10;95.70
612;DHT22;293;53.888;11.464;2023-08-06T11:24:40;22.00;95.50
612;DHT22;293;53.888;11.464;2023-08-06T11:27:12;22.10;95.50
612;DHT22;293;53.888;11.464;2023-08-06T11:29:40;22.00;96.00
612;DHT22;293;53.888;11.464;2023-08-06T11:32:09;21.90;95.60
612;DHT22;293;53.888;11.464;2023-08-06T11:34:36;21.90;96.30
612;DHT22;293;53.888;11.464;2023-08-06T11:37:04;21.90;97.20
612;DHT22;293;53.888;11.464;2023-08-06T11:39:31;21.90;97.60
612;DHT22;293;53.888;11.464;2023-08-06T11:41:58;21.90;98.10
612;DHT22;293;53.888;11.464;2023-08-06T11:44:30;22.00;98.20
612;DHT22;293;53.888;11.464;2023-08-06T11:46:59;21.90;98.50
612;DHT22;293;53.888;11.464;2023-08-06T11:49:42;21.80;98.50
612;DHT22;293;53.888;11.464;2023-08-06T11:52:13;21.90;98.40
612;DHT22;293;53.888;11.464;2023-08-06T11:54:40;21.80;98.10
612;DHT22;293;53.888;11.464;2023-08-06T11:57:07;21.80;97.90
612;DHT22;293;53.888;11.464;2023-08-06T11:59:34;21.60;97.60
612;DHT22;293;53.888;11.464;2023-08-06T12:02:02;21.40;97.60
612;DHT22;293;53.888;11.464;2023-08-06T12:04:31;21.30;97.70
612;DHT22;293;53.888;11.464;2023-08-06T12:07:06;21.30;97.70
612;DHT22;293;53.888;11.464;2023-08-06T12:09:34;21.30;97.50
612;DHT22;293;53.888;11.464;2023-08-06T12:12:02;21.30;97.60
612;DHT22;293;53.888;11.464;2023-08-06T12:14:29;21.30;97.30
612;DHT22;293;53.888;11.464;2023-08-06T12:16:56;21.30;97.40
612;DHT22;293;53.888;11.464;2023-08-06T12:19:23;21.40;96.90
612;DHT22;293;53.888;11.464;2023-08-06T12:21:50;21.50;96.70
612;DHT22;293;53.888;11.464;2023-08-06T12:24:18;21.50;96.10
612;DHT22;293;53.888;11.464;2023-08-06T12:26:45;21.50;95.80
612;DHT22;293;53.888;11.464;2023-08-06T12:29:12;21.60;95.60
612;DHT22;293;53.888;11.464;2023-08-06T12:31:39;21.60;94.80
612;DHT22;293;53.888;11.464;2023-08-06T12:34:06;21.60;93.90
612;DHT22;293;53.888;11.464;2023-08-06T12:36:33;21.60;93.80
612;DHT22;293;53.888;11.464;2023-08-06T12:39:00;21.60;93.80
612;DHT22;293;53.888;11.464;2023-08-06T12:41:28;21.60;94.40
612;DHT22;293;53.888;11.464;2023-08-06T12:43:55;21.60;94.80
612;DHT22;293;53.888;11.464;2023-08-06T12:46:22;21.60;94.60
612;DHT22;293;53.888;11.464;2023-08-06T12:48:49;21.50;94.70
612;DHT22;293;53.888;11.464;2023-08-06T12:51:16;21.50;94.50
612;DHT22;293;53.888;11.464;2023-08-06T12:53:43;21.50;94.70
612;DHT22;293;53.888;11.464;2023-08-06T12:56:10;21.60;95.60
612;DHT22;293;53.888;11.464;2023-08-06T12:58:38;21.60;95.20
612;DHT22;293;53.888;11.464;2023-08-06T13:01:05;21.70;95.00
612;DHT22;293;53.888;11.464;2023-08-06T13:03:32;21.80;95.00
612;DHT22;293;53.888;11.464;2023-08-06T13:05:59;21.70;95.10
612;DHT22;293;53.888;11.464;2023-08-06T13:08:26;21.60;95.40
612;DHT22;293;53.888;11.464;2023-08-06T13:10:53;21.50;95.50
612;DHT22;293;53.888;11.464;2023-08-06T13:13:19;21.40;95.50
612;DHT22;293;53.888;11.464;2023-08-06T13:15:49;21.40;95.70
612;DHT22;293;53.888;11.464;2023-08-06T13:18:16;21.30;95.40
612;DHT22;293;53.888;11.464;2023-08-06T13:20:43;21.40;95.20
612;DHT22;293;53.888;11.464;2023-08-06T13:23:11;21.50;95.60
612;DHT22;293;53.888;11.464;2023-08-06T13:25:41;21.60;95.20
612;DHT22;293;53.888;11.464;2023-08-06T13:28:08;21.80;95.40
612;DHT22;293;53.888;11.464;2023-08-06T13:30:35;21.70;94.80
612;DHT22;293;53.888;11.464;2023-08-06T13:33:08;21.60;94.60
612;DHT22;293;53.888;11.464;2023-08-06T13:35:35;21.60;94.60
612;DHT22;293;53.888;11.464;2023-08-06T13:38:02;21.70;95.00
612;DHT22;293;53.888;11.464;2023-08-06T13:40:29;21.80;95.20
612;DHT22;293;53.888;11.464;2023-08-06T13:42:56;21.80;95.30
612;DHT22;293;53.888;11.464;2023-08-06T13:45:23;21.60;95.50
612;DHT22;293;53.888;11.464;2023-08-06T13:47:50;21.60;95.90
612;DHT22;293;53.888;11.464;2023-08-06T13:50:18;21.50;96.60
612;DHT22;293;53.888;11.464;2023-08-06T13:52:47;21.60;97.50
612;DHT22;293;53.888;11.464;2023-08-06T13:55:14;21.60;98.00
612;DHT22;293;53.888;11.464;2023-08-06T13:57:42;21.60;98.50
612;DHT22;293;53.888;11.464;2023-08-06T14:00:09;21.60;98.60
612;DHT22;293;53.888;11.464;2023-08-06T14:02:36;21.60;98.70
612;DHT22;293;53.888;11.464;2023-08-06T14:05:04;21.60;99.00
612;DHT22;293;53.888;11.464;2023-08-06T14:07:32;21.60;98.40
612;DHT22;293;53.888;11.464;2023-08-06T14:10:00;21.60;98.80
612;DHT22;293;53.888;11.464;2023-08-06T14:12:27;21.50;98.90
612;DHT22;293;53.888;11.464;2023-08-06T14:14:54;21.40;99.30
612;DHT22;293;53.888;11.464;2023-08-06T14:17:21;21.30;99.50
612;DHT22;293;53.888;11.464;2023-08-06T14:19:47;21.20;99.90
612;DHT22;293;53.888;11.464;2023-08-06T14:22:14;21.20;99.90
612;DHT22;293;53.888;11.464;2023-08-06T14:24:42;21.30;99.90
612;DHT22;293;53.888;11.464;2023-08-06T14:27:09;21.30;99.80
612;DHT22;293;53.888;11.464;2023-08-06T14:29:36;21.10;99.30
612;DHT22;293;53.888;11.464;2023-08-06T14:32:03;21.00;98.30
612;DHT22;293;53.888;11.464;2023-08-06T14:34:30;21.00;98.40
612;DHT22;293;53.888;11.464;2023-08-06T14:36:57;21.00;98.20
612;DHT22;293;53.888;11.464;2023-08-06T14:39:24;21.00;97.70
612;DHT22;293;53.888;11.464;2023-08-06T14:41:52;20.80;97.80
612;DHT22;293;53.888;11.464;2023-08-06T14:44:19;20.80;98.00
612;DHT22;293;53.888;11.464;2023-08-06T14:46:46;20.70;98.40
612;DHT22;293;53.888;11.464;2023-08-06T14:49:13;20.70;98.90
612;DHT22;293;53.888;11.464;2023-08-06T14:51:40;20.70;98.80
612;DHT22;293;53.888;11.464;2023-08-06T14:54:07;20.50;98.50
612;DHT22;293;53.888;11.464;2023-08-06T14:56:34;20.50;98.50
612;DHT22;293;53.888;11.464;2023-08-06T14:59:02;20.50;98.70
612;DHT22;293;53.888;11.464;2023-08-06T15:01:29;20.50;98.40
612;DHT22;293;53.888;11.464;2023-08-06T15:03:55;20.50;98.20
612;DHT22;293;53.888;11.464;2023-08-06T15:06:22;20.50;98.30
612;DHT22;293;53.888;11.464;2023-08-06T15:08:49;20.50;98.80
612;DHT22;293;53.888;11.464;2023-08-06T15:11:16;20.40;98.90
612;DHT22;293;53.888;11.464;2023-08-06T15:13:43;20.40;99.10
612;DHT22;293;53.888;11.464;2023-08-06T15:16:11;20.40;99.30
612;DHT22;293;53.888;11.464;2023-08-06T15:18:38;20.40;99.10
612;DHT22;293;53.888;11.464;2023-08-06T15:21:05;20.40;98.80
612;DHT22;293;53.888;11.464;2023-08-06T15:23:32;20.30;99.20
612;DHT22;293;53.888;11.464;2023-08-06T15:25:59;20.30;99.30
612;DHT22;293;53.888;11.464;2023-08-06T15:28:25;20.40;99.50
612;DHT22;293;53.888;11.464;2023-08-06T15:30:52;20.30;98.80
612;DHT22;293;53.888;11.464;2023-08-06T15:33:22;20.30;98.70
612;DHT22;293;53.888;11.464;2023-08-06T15:35:49;20.30;98.80
612;DHT22;293;53.888;11.464;2023-08-06T15:38:16;20.20;98.90
612;DHT22;293;53.888;11.464;2023-08-06T15:40:42;20.20;98.90
612;DHT22;293;53.888;11.464;2023-08-06T15:43:10;20.10;99.40
612;DHT22;293;53.888;11.464;2023-08-06T15:45:37;20.10;99.10
612;DHT22;293;53.888;11.464;2023-08-06T15:48:04;20.00;99.30
612;DHT22;293;53.888;11.464;2023-08-06T15:50:33;19.90;99.70
612;DHT22;293;53.888;11.464;2023-08-06T15:53:00;19.70;99.90
612;DHT22;293;53.888;11.464;2023-08-06T15:55:26;19.70;99.90
612;DHT22;293;53.888;11.464;2023-08-06T15:57:53;19.70;99.90
612;DHT22;293;53.888;11.464;2023-08-06T16:00:20;19.70;99.90
612;DHT22;293;53.888;11.464;2023-08-06T16:02:47;19.70;99.90
612;DHT22;293;53.888;11.464;2023-08-06T16:05:14;19.70;99.90
612;DHT22;293;53.888;11.464;2023-08-06T16:07:43;19.60;99.90
612;DHT22;293;53.888;11.464;2023-08-06T16:10:10;19.60;99.90
612;DHT22;293;53.888;11.464;2023-08-06T16:12:37;19.50;99.90
612;DHT22;293;53.888;11.464;2023-08-06T16:15:04;19.40;99.90
612;DHT22;293;53.888;11.464;2023-08-06T16:17:31;19.40;99.90
612;DHT22;293;53.888;11.464;2023-08-06T16:19:58;19.30;99.90